createdAt,value
2023-04-10T00:02:52.014Z,101545.84
2023-04-10T00:06:43.852Z,101549.42
2023-04-10T00:10:14.075Z,101543.11
2023-04-10T00:13:58.437Z,101542.20
2023-04-10T00:17:36.376Z,101543.50
2023-04-10T00:21:07.775Z,101544.83
2023-04-10T00:24:32.781Z,101541.82
2023-04-10T00:28:17.458Z,101541.69
2023-04-10T00:32:19.933Z,101541.73
2023-04-10T00:36:00.041Z,101541.78
2023-04-10T00:39:35.295Z,101546.98
2023-04-10T00:43:13.016Z,101557.83
2023-04-10T00:46:49.818Z,101571.01
2023-04-10T00:50:09.910Z,101571.31
2023-04-10T00:54:10.604Z,101569.83
2023-04-10T00:57:47.948Z,101568.62
2023-04-10T01:01:27.729Z,101568.52
2023-04-10T01:05:03.980Z,101570.88
2023-04-10T01:08:32.722Z,101574.55
2023-04-10T01:12:20.044Z,101581.07
2023-04-10T01:16:05.773Z,101582.09
2023-04-10T01:20:03.514Z,101581.92
2023-04-10T01:23:39.162Z,101579.09
2023-04-10T01:27:06.514Z,101572.48
2023-04-10T01:30:16.363Z,101567.39
2023-04-10T01:34:20.604Z,101566.45
2023-04-10T01:37:43.738Z,101563.85
2023-04-10T01:41:35.591Z,101563.05
2023-04-10T01:45:05.016Z,101564.24
2023-04-10T01:48:50.543Z,101564.56
2023-04-10T01:52:27.080Z,101565.47
2023-04-10T01:56:04.663Z,101561.77
2023-04-10T01:59:42.128Z,101558.79
2023-04-10T02:03:06.749Z,101553.35
2023-04-10T02:07:04.300Z,101552.06
2023-04-10T02:10:41.297Z,101548.52
2023-04-10T02:14:18.172Z,101548.94
2023-04-10T02:17:51.926Z,101550.16
2023-04-10T02:21:29.103Z,101550.01
2023-04-10T02:25:08.135Z,101553.02
2023-04-10T02:28:27.158Z,101560.03
2023-04-10T02:32:05.418Z,101560.55
2023-04-10T02:36:10.030Z,101562.36
2023-04-10T02:39:37.354Z,101560.08
2023-04-10T02:42:58.251Z,101561.39
2023-04-10T02:46:35.024Z,101562.10
2023-04-10T02:50:31.726Z,101562.92
2023-04-10T02:54:08.305Z,101563.83
2023-04-10T02:57:44.872Z,101571.63
2023-04-10T03:01:07.063Z,101570.09
2023-04-10T03:05:21.229Z,101567.16
2023-04-10T03:09:07.192Z,101571.77
2023-04-10T03:12:33.787Z,101567.36
2023-04-10T03:16:10.524Z,101564.59
2023-04-10T03:19:50.358Z,101564.10
2023-04-10T03:23:11.056Z,101568.67
2023-04-10T03:26:53.596Z,101571.56
2023-04-10T03:30:37.406Z,101573.14
2023-04-10T03:34:23.441Z,101568.30
2023-04-10T03:38:10.122Z,101559.02
2023-04-10T03:42:04.687Z,101558.65
2023-04-10T03:45:19.495Z,101557.50
2023-04-10T03:49:09.969Z,101556.52
2023-04-10T03:52:28.662Z,101557.55
2023-04-10T03:56:14.453Z,101555.56
2023-04-10T04:00:09.302Z,101560.73
2023-04-10T04:03:47.031Z,101563.09
2023-04-10T04:07:23.805Z,101568.39
2023-04-10T04:11:09.311Z,101571.20
2023-04-10T04:14:39.172Z,101572.50
2023-04-10T04:18:07.804Z,101572.70
2023-04-10T04:21:37.756Z,101568.63
2023-04-10T04:25:15.804Z,101573.00
2023-04-10T04:29:27.870Z,101573.04
2023-04-10T04:33:10.890Z,101574.65
2023-04-10T04:36:31.397Z,101582.28
2023-04-10T04:40:32.925Z,101587.95
2023-04-10T04:44:10.697Z,101589.30
2023-04-10T04:47:32.345Z,101593.94
2023-04-10T04:51:09.210Z,101599.14
2023-04-10T04:55:21.252Z,101605.89
2023-04-10T04:58:40.052Z,101603.80
2023-04-10T05:02:32.828Z,101604.98
2023-04-10T05:06:27.239Z,101606.99
2023-04-10T05:10:05.070Z,101614.48
2023-04-10T05:13:39.871Z,101614.95
2023-04-10T05:17:19.413Z,101623.48
2023-04-10T05:20:38.642Z,101624.73
2023-04-10T05:25:12.884Z,101625.42
2023-04-10T05:28:34.574Z,101631.15
2023-04-10T05:32:28.232Z,101639.10
2023-04-10T05:36:04.853Z,101636.61
2023-04-10T05:39:27.494Z,101636.67
2023-04-10T05:43:03.359Z,101642.12
2023-04-10T05:46:55.156Z,101637.64
2023-04-10T05:50:40.749Z,101634.98
2023-04-10T05:54:18.482Z,101635.17
2023-04-10T05:58:09.941Z,101635.54
2023-04-10T06:01:50.301Z,101638.79
2023-04-10T06:05:10.912Z,101638.92
2023-04-10T06:08:55.299Z,101636.92
2023-04-10T06:12:58.108Z,101631.94
2023-04-10T06:16:35.214Z,101633.10
2023-04-10T06:20:13.504Z,101638.83
2023-04-10T06:23:51.783Z,101641.34
2023-04-10T06:27:26.757Z,101645.02
2023-04-10T06:31:07.312Z,101643.17
2023-04-10T06:34:25.680Z,101643.39
2023-04-10T06:38:15.761Z,101639.45
2023-04-10T06:42:05.268Z,101637.59
2023-04-10T06:45:56.265Z,101632.05
2023-04-10T06:49:43.840Z,101631.52
2023-04-10T06:53:21.520Z,101622.06
2023-04-10T06:56:30.544Z,101619.13
2023-04-10T07:00:42.145Z,101617.85
2023-04-10T07:04:09.888Z,101617.77
2023-04-10T07:07:49.992Z,101620.07
2023-04-10T07:11:35.255Z,101624.20
2023-04-10T07:15:02.038Z,101627.41
2023-04-10T07:18:22.720Z,101626.09
2023-04-10T07:22:22.076Z,101620.02
2023-04-10T07:26:00.998Z,101613.52
2023-04-10T07:29:21.725Z,101613.54
2023-04-10T07:33:23.152Z,101615.22
2023-04-10T07:37:00.789Z,101612.45
2023-04-10T07:40:42.993Z,101610.70
2023-04-10T07:44:19.652Z,101611.27
2023-04-10T07:48:02.233Z,101613.77
2023-04-10T07:51:32.709Z,101610.59
2023-04-10T07:54:52.592Z,101611.71
2023-04-10T07:58:48.511Z,101613.72
2023-04-10T08:02:08.106Z,101612.33
2023-04-10T08:06:10.347Z,101614.89
2023-04-10T08:09:46.123Z,101610.83
2023-04-10T08:13:24.012Z,101605.55
2023-04-10T08:16:45.733Z,101601.08
2023-04-10T08:20:47.332Z,101601.82
2023-04-10T08:24:28.993Z,101597.36
2023-04-10T08:27:45.860Z,101598.46
2023-04-10T08:31:40.502Z,101595.77
2023-04-10T08:35:18.470Z,101589.90
2023-04-10T08:38:42.421Z,101589.00
2023-04-10T08:42:27.457Z,101587.05
2023-04-10T08:46:11.325Z,101585.66
2023-04-10T08:49:55.187Z,101579.66
2023-04-10T08:53:36.486Z,101575.00
2023-04-10T08:57:05.384Z,101584.15
2023-04-10T09:00:38.589Z,101584.83
2023-04-10T09:04:03.025Z,101581.36
2023-04-10T09:07:39.736Z,101579.17
2023-04-10T09:11:24.394Z,101576.76
2023-04-10T09:15:09.877Z,101574.23
2023-04-10T09:19:06.473Z,101566.85
2023-04-10T09:22:35.035Z,101560.29
2023-04-10T09:26:40.445Z,101558.09
2023-04-10T09:30:06.502Z,101558.44
2023-04-10T09:33:35.733Z,101553.00
2023-04-10T09:37:39.898Z,101548.59
2023-04-10T09:41:12.829Z,101539.72
2023-04-10T09:44:38.393Z,101542.08
2023-04-10T09:48:14.431Z,101538.17
2023-04-10T09:52:01.101Z,101538.05
2023-04-10T09:55:48.427Z,101534.02
2023-04-10T09:59:23.680Z,101530.85
2023-04-10T10:03:03.997Z,101528.95
2023-04-10T10:06:23.345Z,101526.11
2023-04-10T10:10:03.998Z,101521.20
2023-04-10T10:13:52.276Z,101518.62
2023-04-10T10:17:16.885Z,101513.41
2023-04-10T10:21:20.203Z,101506.14
2023-04-10T10:24:39.324Z,101501.92
2023-04-10T10:28:42.779Z,101499.63
2023-04-10T10:32:12.497Z,101494.20
2023-04-10T10:35:40.118Z,101487.15
2023-04-10T10:39:59.367Z,101482.39
2023-04-10T10:43:09.572Z,101474.08
2023-04-10T10:47:24.301Z,101471.23
2023-04-10T10:50:58.988Z,101469.77
2023-04-10T10:54:42.244Z,101471.52
2023-04-10T10:57:52.044Z,101465.19
2023-04-10T11:01:24.975Z,101467.08
2023-04-10T11:05:10.640Z,101456.47
2023-04-10T11:08:53.133Z,101456.20
2023-04-10T11:12:26.308Z,101454.77
2023-04-10T11:16:11.730Z,101448.57
2023-04-10T11:20:13.999Z,101447.09
2023-04-10T11:24:06.376Z,101440.27
2023-04-10T11:27:40.455Z,101433.14
2023-04-10T11:30:47.216Z,101430.36
2023-04-10T11:34:30.945Z,101432.22
2023-04-10T11:38:43.154Z,101427.58
2023-04-10T11:41:53.347Z,101425.35
2023-04-10T11:45:45.965Z,101421.08
2023-04-10T11:49:21.047Z,101421.67
2023-04-10T11:53:23.262Z,101413.45
2023-04-10T11:57:03.693Z,101408.21
2023-04-10T12:00:41.822Z,101405.90
2023-04-10T12:04:16.768Z,101397.25
2023-04-10T12:07:53.328Z,101396.03
2023-04-10T12:11:31.958Z,101393.33
2023-04-10T12:14:55.383Z,101389.57
2023-04-10T12:18:46.738Z,101380.29
2023-04-10T12:22:25.474Z,101378.86
2023-04-10T12:26:15.815Z,101378.14
2023-04-10T12:29:39.743Z,101376.70
2023-04-10T12:33:03.855Z,101374.04
2023-04-10T12:36:55.556Z,101367.86
2023-04-10T12:41:01.238Z,101366.70
2023-04-10T12:44:35.716Z,101362.74
2023-04-10T12:48:12.261Z,101356.39
2023-04-10T12:51:52.308Z,101355.60
2023-04-10T12:55:22.127Z,101350.97
2023-04-10T12:59:07.771Z,101351.48
2023-04-10T13:02:43.490Z,101352.24
2023-04-10T13:06:20.841Z,101349.80
2023-04-10T13:09:49.800Z,101346.89
2023-04-10T13:13:20.695Z,101345.45
2023-04-10T13:17:15.682Z,101354.50
2023-04-10T13:20:52.714Z,101350.20
2023-04-10T13:24:16.889Z,101343.16
2023-04-10T13:28:15.388Z,101339.48
2023-04-10T13:31:43.967Z,101336.90
2023-04-10T13:35:30.138Z,101336.52
2023-04-10T13:39:02.110Z,101332.73
2023-04-10T13:42:48.396Z,101331.23
2023-04-10T13:46:16.164Z,101332.10
2023-04-10T13:49:51.428Z,101326.41
2023-04-10T13:53:31.044Z,101324.80
2023-04-10T13:57:08.752Z,101321.13
2023-04-10T14:00:56.534Z,101317.05
2023-04-10T14:04:09.104Z,101313.54
2023-04-10T14:08:14.110Z,101310.42
2023-04-10T14:11:24.830Z,101304.71
2023-04-10T14:15:19.076Z,101298.04
2023-04-10T14:18:54.824Z,101294.61
2023-04-10T14:22:20.023Z,101289.09
2023-04-10T14:26:20.987Z,101286.05
2023-04-10T14:29:54.702Z,101283.56
2023-04-10T14:33:12.922Z,101283.42
2023-04-10T14:37:03.821Z,101282.69
2023-04-10T14:40:32.409Z,101279.27
2023-04-10T14:44:19.084Z,101276.17
2023-04-10T14:47:41.955Z,101272.15
2023-04-10T14:51:33.439Z,101265.00
2023-04-10T14:55:12.381Z,101262.40
2023-04-10T14:58:43.915Z,101260.73
2023-04-10T15:02:10.979Z,101257.33
2023-04-10T15:06:10.934Z,101259.69
2023-04-10T15:09:53.397Z,101257.45
2023-04-10T15:13:27.840Z,101249.78
2023-04-10T15:17:09.743Z,101242.49
2023-04-10T15:20:26.323Z,101240.80
2023-04-10T15:24:39.828Z,101239.92
2023-04-10T15:28:00.280Z,101236.43
2023-04-10T15:31:27.355Z,101233.69
2023-04-10T15:35:21.678Z,101222.16
2023-04-10T15:38:40.614Z,101217.23
2023-04-10T15:42:52.030Z,101220.76
2023-04-10T15:46:23.146Z,101220.27
2023-04-10T15:49:57.956Z,101220.56
2023-04-10T15:53:18.208Z,101212.61
2023-04-10T15:57:20.783Z,101209.41
2023-04-10T16:00:40.460Z,101207.44
2023-04-10T16:04:34.444Z,101208.60
2023-04-10T16:08:12.667Z,101210.61
2023-04-10T16:11:50.889Z,101209.45
2023-04-10T16:15:12.400Z,101204.15
2023-04-10T16:19:17.177Z,101213.17
2023-04-10T16:22:51.502Z,101211.75
2023-04-10T16:26:29.240Z,101211.38
2023-04-10T16:29:51.140Z,101210.16
2023-04-10T16:33:29.677Z,101201.19
2023-04-10T16:37:25.866Z,101201.21
2023-04-10T16:40:44.631Z,101202.66
2023-04-10T16:44:39.194Z,101202.54
2023-04-10T16:48:19.188Z,101200.48
2023-04-10T16:51:53.309Z,101198.15
2023-04-10T16:55:41.099Z,101208.34
2023-04-10T16:59:04.158Z,101208.92
2023-04-10T17:02:44.330Z,101213.52
2023-04-10T17:06:25.114Z,101211.66
2023-04-10T17:09:59.809Z,101208.73
2023-04-10T17:13:41.031Z,101207.91
2023-04-10T17:17:17.543Z,101210.64
2023-04-10T17:20:55.086Z,101210.70
2023-04-10T17:24:32.680Z,101212.23
2023-04-10T17:28:10.294Z,101213.80
2023-04-10T17:31:48.052Z,101214.27
2023-04-10T17:35:29.902Z,101216.14
2023-04-10T17:39:07.407Z,101214.73
2023-04-10T17:42:45.076Z,101214.73
2023-04-10T17:46:18.778Z,101219.48
2023-04-10T17:50:01.515Z,101217.83
2023-04-10T17:53:45.578Z,101214.73
2023-04-10T17:56:56.834Z,101218.77
2023-04-10T18:01:08.366Z,101213.91
2023-04-10T18:04:20.323Z,101210.19
2023-04-10T18:07:58.119Z,101208.50
2023-04-10T18:11:44.333Z,101209.08
2023-04-10T18:15:30.023Z,101215.56
2023-04-10T18:18:47.695Z,101216.89
2023-04-10T18:22:49.034Z,101219.11
2023-04-10T18:26:36.758Z,101220.63
2023-04-10T18:30:14.430Z,101210.48
2023-04-10T18:33:43.284Z,101215.70
2023-04-10T18:37:18.797Z,101214.26
2023-04-10T18:41:06.032Z,101213.11
2023-04-10T18:44:43.372Z,101215.94
2023-04-10T18:48:12.847Z,101215.61
2023-04-10T18:51:54.047Z,101214.51
2023-04-10T18:55:12.770Z,101214.46
2023-04-10T18:58:50.453Z,101210.04
2023-04-10T19:02:44.162Z,101208.49
2023-04-10T19:06:15.061Z,101208.03
2023-04-10T19:10:00.333Z,101205.13
2023-04-10T19:13:18.022Z,101198.99
2023-04-10T19:17:24.212Z,101195.55
2023-04-10T19:21:05.649Z,101193.94
2023-04-10T19:24:44.980Z,101193.09
2023-04-10T19:27:54.675Z,101190.21
2023-04-10T19:31:39.112Z,101188.40
2023-04-10T19:35:23.655Z,101192.09
2023-04-10T19:39:07.063Z,101187.20
2023-04-10T19:42:51.646Z,101183.02
2023-04-10T19:46:30.511Z,101183.66
2023-04-10T19:50:05.594Z,101188.21
2023-04-10T19:53:55.773Z,101182.02
2023-04-10T19:57:27.919Z,101179.20
2023-04-10T20:01:30.432Z,101176.90
2023-04-10T20:05:12.541Z,101176.79
2023-04-10T20:08:28.219Z,101175.30
2023-04-10T20:12:32.437Z,101176.10
2023-04-10T20:16:09.034Z,101175.79
2023-04-10T20:19:46.242Z,101180.72
2023-04-10T20:23:04.995Z,101170.89
2023-04-10T20:27:04.461Z,101164.84
2023-04-10T20:30:27.792Z,101164.41
2023-04-10T20:34:12.452Z,101159.61
2023-04-10T20:38:00.642Z,101161.73
2023-04-10T20:41:52.534Z,101160.21
2023-04-10T20:45:28.117Z,101157.06
2023-04-10T20:49:15.351Z,101150.58
2023-04-10T20:52:28.213Z,101154.39
2023-04-10T20:56:10.142Z,101157.48
2023-04-10T21:00:00.224Z,101152.04
2023-04-10T21:03:22.405Z,101149.63
2023-04-10T21:07:14.451Z,101154.31
2023-04-10T21:10:44.223Z,101155.52
2023-04-10T21:14:40.875Z,101155.40
2023-04-10T21:18:08.553Z,101152.36
2023-04-10T21:21:46.283Z,101148.73
2023-04-10T21:25:08.824Z,101150.48
2023-04-10T21:29:04.100Z,101143.05
2023-04-10T21:32:41.090Z,101143.59
2023-04-10T21:36:19.177Z,101133.29
2023-04-10T21:40:01.369Z,101138.04
2023-04-10T21:43:24.516Z,101138.63
2023-04-10T21:47:24.105Z,101129.44
2023-04-10T21:50:45.315Z,101126.63
2023-04-10T21:54:48.825Z,101127.13
2023-04-10T21:58:05.336Z,101128.19
2023-04-10T22:01:59.964Z,101126.19
2023-04-10T22:05:37.693Z,101120.83
2023-04-10T22:09:22.568Z,101124.10
2023-04-10T22:12:57.804Z,101121.51
2023-04-10T22:16:18.936Z,101124.10
2023-04-10T22:20:19.605Z,101120.79
2023-04-10T22:23:41.333Z,101120.37
2023-04-10T22:27:29.365Z,101117.45
2023-04-10T22:31:20.582Z,101111.92
2023-04-10T22:35:09.450Z,101112.13
2023-04-10T22:38:18.844Z,101112.94
2023-04-10T22:42:13.918Z,101105.23
2023-04-10T22:45:40.860Z,101105.33
2023-04-10T22:49:25.465Z,101103.17
2023-04-10T22:53:20.038Z,101099.41
2023-04-10T22:56:41.162Z,101089.17
2023-04-10T23:00:35.485Z,101083.36
2023-04-10T23:04:22.984Z,101080.77
2023-04-10T23:08:00.853Z,101078.92
2023-04-10T23:11:26.319Z,101074.99
2023-04-10T23:14:59.499Z,101069.34
2023-04-10T23:18:24.915Z,101064.39
2023-04-10T23:22:09.549Z,101059.52
2023-04-10T23:26:00.906Z,101056.21
2023-04-10T23:29:45.282Z,101047.60
2023-04-10T23:33:30.948Z,101041.96
2023-04-10T23:37:17.536Z,101037.80
2023-04-10T23:41:12.149Z,101032.05
2023-04-10T23:44:50.099Z,101032.08
2023-04-10T23:47:58.964Z,101029.54
2023-04-10T23:52:01.673Z,101027.27
2023-04-10T23:55:39.245Z,101016.91
2023-04-10T23:59:16.704Z,101010.15
